sensor_id;sensor_type;location;lat;lon;timestamp;pressure;altitude;pressure_sealevel;temperature;humidity
49877;BME280;35771;48.978;9.294;2023-01-04T00:02:01;100270.81;;;1.34;100.00
49877;BME280;35771;48.978;9.294;2023-01-04T00:04:27;100312.34;;;1.55;100.00
49877;BME280;35771;48.978;9.294;2023-01-04T00:06:54;100308.78;;;1.55;100.00
49877;BME280;35771;48.978;9.294;2023-01-04T00:09:21;100281.97;;;1.55;100.00
49877;BME280;35771;48.978;9.294;2023-01-04T00:11:48;100272.53;;;1.49;100.00
49877;BME280;35771;48.978;9.294;2023-01-04T00:14:15;100291.44;;;1.61;100.00
49877;BME280;35771;48.978;9.294;2023-01-04T00:16:43;100277.81;;;1.36;100.00
49877;BME280;35771;48.978;9.294;2023-01-04T00:19:11;100297.22;;;1.40;100.00
49877;BME280;35771;48.978;9.294;2023-01-04T00:21:38;100292.94;;;1.23;100.00
49877;BME280;35771;48.978;9.294;2023-01-04T00:24:05;100268.28;;;1.03;100.00
49877;BME280;35771;48.978;9.294;2023-01-04T00:26:33;100283.31;;;1.06;100.00
49877;BME280;35771;48.978;9.294;2023-01-04T00:29:03;100272.84;;;1.16;100.00
49877;BME280;35771;48.978;9.294;2023-01-04T00:31:31;100266.53;;;1.17;100.00
49877;BME280;35771;48.978;9.294;2023-01-04T00:34:00;100235.94;;;1.06;100.00
49877;BME280;35771;48.978;9.294;2023-01-04T00:36:27;100228.94;;;1.18;100.00
49877;BME280;35771;48.978;9.294;2023-01-04T00:38:54;100208.19;;;1.22;100.00
49877;BME280;35771;48.978;9.294;2023-01-04T00:41:33;100212.28;;;1.28;100.00
49877;BME280;35771;48.978;9.294;2023-01-04T00:44:01;100221.28;;;1.27;100.00
49877;BME280;35771;48.978;9.294;2023-01-04T00:46:29;100229.97;;;1.30;100.00
49877;BME280;35771;48.978;9.294;2023-01-04T00:48:55;100224.69;;;1.43;100.00
49877;BME280;35771;48.978;9.294;2023-01-04T00:51:22;100211.38;;;1.41;100.00
49877;BME280;35771;48.978;9.294;2023-01-04T00:53:48;100215.47;;;1.47;100.00
49877;BME280;35771;48.978;9.294;2023-01-04T00:56:15;100212.78;;;1.47;100.00
49877;BME280;35771;48.978;9.294;2023-01-04T00:58:41;100232.66;;;1.57;100.00
49877;BME280;35771;48.978;9.294;2023-01-04T01:01:09;100225.88;;;1.52;100.00
49877;BME280;35771;48.978;9.294;2023-01-04T01:03:36;100214.44;;;1.35;100.00
49877;BME280;35771;48.978;9.294;2023-01-04T01:06:05;100241.88;;;1.53;100.00
49877;BME280;35771;48.978;9.294;2023-01-04T01:08:32;100226.59;;;1.41;100.00
49877;BME280;35771;48.978;9.294;2023-01-04T01:11:02;100240.19;;;1.38;100.00
49877;BME280;35771;48.978;9.294;2023-01-04T01:13:29;100218.22;;;1.33;100.00
49877;BME280;35771;48.978;9.294;2023-01-04T01:16:01;100214.84;;;1.29;100.00
49877;BME280;35771;48.978;9.294;2023-01-04T01:18:29;100258.81;;;1.54;100.00
49877;BME280;35771;48.978;9.294;2023-01-04T01:20:56;100251.72;;;1.53;100.00
49877;BME280;35771;48.978;9.294;2023-01-04T01:23:23;100257.50;;;1.47;100.00
49877;BME280;35771;48.978;9.294;2023-01-04T01:25:49;100271.50;;;1.37;100.00
49877;BME280;35771;48.978;9.294;2023-01-04T01:28:16;100254.53;;;1.37;100.00
49877;BME280;35771;48.978;9.294;2023-01-04T01:30:42;100263.47;;;1.37;100.00
49877;BME280;35771;48.978;9.294;2023-01-04T01:33:09;100261.28;;;1.30;100.00
49877;BME280;35771;48.978;9.294;2023-01-04T01:35:37;100244.06;;;1.05;100.00
49877;BME280;35771;48.978;9.294;2023-01-04T01:38:04;100280.31;;;1.25;100.00
49877;BME280;35771;48.978;9.294;2023-01-04T01:40:30;100253.66;;;1.09;100.00
49877;BME280;35771;48.978;9.294;2023-01-04T01:42:57;100279.00;;;1.18;100.00
49877;BME280;35771;48.978;9.294;2023-01-04T01:45:28;100250.88;;;0.96;100.00
49877;BME280;35771;48.978;9.294;2023-01-04T01:47:59;100231.66;;;0.90;100.00
49877;BME280;35771;48.978;9.294;2023-01-04T01:50:29;100235.19;;;0.90;100.00
49877;BME280;35771;48.978;9.294;2023-01-04T01:52:59;100265.88;;;1.13;100.00
49877;BME280;35771;48.978;9.294;2023-01-04T01:55:27;100260.91;;;1.21;100.00
49877;BME280;35771;48.978;9.294;2023-01-04T01:57:56;100218.81;;;1.09;100.00
49877;BME280;35771;48.978;9.294;2023-01-04T02:00:26;100237.91;;;1.32;100.00
49877;BME280;35771;48.978;9.294;2023-01-04T02:02:58;100233.50;;;1.31;100.00
49877;BME280;35771;48.978;9.294;2023-01-04T02:05:28;100247.47;;;1.36;100.00
49877;BME280;35771;48.978;9.294;2023-01-04T02:07:56;100232.00;;;1.27;100.00
49877;BME280;35771;48.978;9.294;2023-01-04T02:10:24;100226.75;;;1.11;100.00
49877;BME280;35771;48.978;9.294;2023-01-04T02:12:51;100242.13;;;1.21;100.00
49877;BME280;35771;48.978;9.294;2023-01-04T02:15:18;100210.69;;;1.11;100.00
49877;BME280;35771;48.978;9.294;2023-01-04T02:17:53;100230.28;;;1.26;100.00
49877;BME280;35771;48.978;9.294;2023-01-04T02:20:28;100239.03;;;1.42;100.00
49877;BME280;35771;48.978;9.294;2023-01-04T02:26:26;100194.31;;;1.30;100.00
49877;BME280;35771;48.978;9.294;2023-01-04T02:29:11;100192.56;;;1.29;100.00
49877;BME280;35771;48.978;9.294;2023-01-04T02:31:50;100216.81;;;1.40;100.00
49877;BME280;35771;48.978;9.294;2023-01-04T02:34:23;100185.47;;;1.28;100.00
49877;BME280;35771;48.978;9.294;2023-01-04T02:36:56;100213.88;;;1.45;100.00
49877;BME280;35771;48.978;9.294;2023-01-04T02:39:33;100223.09;;;1.53;100.00
49877;BME280;35771;48.978;9.294;2023-01-04T02:42:07;100196.25;;;1.40;100.00
49877;BME280;35771;48.978;9.294;2023-01-04T02:44:42;100180.81;;;1.31;100.00
49877;BME280;35771;48.978;9.294;2023-01-04T02:47:23;100187.44;;;1.38;100.00
49877;BME280;35771;48.978;9.294;2023-01-04T02:50:18;100202.66;;;1.52;100.00
49877;BME280;35771;48.978;9.294;2023-01-04T02:53:01;100190.72;;;1.56;100.00
49877;BME280;35771;48.978;9.294;2023-01-04T02:55:41;100197.63;;;1.61;100.00
49877;BME280;35771;48.978;9.294;2023-01-04T02:58:23;100152.94;;;1.34;100.00
49877;BME280;35771;48.978;9.294;2023-01-04T03:00:58;100155.41;;;1.37;100.00
49877;BME280;35771;48.978;9.294;2023-01-04T03:03:58;100192.66;;;1.54;100.00
49877;BME280;35771;48.978;9.294;2023-01-04T03:06:50;100155.50;;;1.35;100.00
49877;BME280;35771;48.978;9.294;2023-01-04T03:09:22;100176.16;;;1.48;100.00
49877;BME280;35771;48.978;9.294;2023-01-04T03:11:56;100142.63;;;1.28;100.00
49877;BME280;35771;48.978;9.294;2023-01-04T03:14:45;100162.28;;;1.41;100.00
49877;BME280;35771;48.978;9.294;2023-01-04T03:17:15;100152.69;;;1.24;100.00
49877;BME280;35771;48.978;9.294;2023-01-04T03:19:47;100131.25;;;1.24;100.00
49877;BME280;35771;48.978;9.294;2023-01-04T03:22:21;100127.63;;;1.25;100.00
49877;BME280;35771;48.978;9.294;2023-01-04T03:25:08;100155.09;;;1.41;100.00
49877;BME280;35771;48.978;9.294;2023-01-04T03:27:53;100144.56;;;1.38;100.00
49877;BME280;35771;48.978;9.294;2023-01-04T03:30:45;100140.44;;;1.20;100.00
49877;BME280;35771;48.978;9.294;2023-01-04T03:33:32;100137.66;;;1.21;100.00
49877;BME280;35771;48.978;9.294;2023-01-04T03:36:27;100124.91;;;0.98;100.00
49877;BME280;35771;48.978;9.294;2023-01-04T03:39:00;100140.31;;;1.09;100.00
49877;BME280;35771;48.978;9.294;2023-01-04T03:41:48;100125.53;;;1.16;100.00
49877;BME280;35771;48.978;9.294;2023-01-04T03:44:41;100148.56;;;1.33;100.00
49877;BME280;35771;48.978;9.294;2023-01-04T03:47:28;100138.13;;;1.28;100.00
49877;BME280;35771;48.978;9.294;2023-01-04T03:50:19;100143.13;;;1.47;100.00
49877;BME280;35771;48.978;9.294;2023-01-04T03:52:50;100151.63;;;1.54;100.00
49877;BME280;35771;48.978;9.294;2023-01-04T03:55:18;100138.13;;;1.55;100.00
49877;BME280;35771;48.978;9.294;2023-01-04T03:57:47;100124.66;;;1.42;100.00
49877;BME280;35771;48.978;9.294;2023-01-04T04:00:16;100131.78;;;1.56;100.00
49877;BME280;35771;48.978;9.294;2023-01-04T04:02:44;100117.09;;;1.49;100.00
49877;BME280;35771;48.978;9.294;2023-01-04T04:05:15;100135.03;;;1.74;100.00
49877;BME280;35771;48.978;9.294;2023-01-04T04:08:02;100111.31;;;1.55;100.00
49877;BME280;35771;48.978;9.294;2023-01-04T04:10:46;100115.47;;;1.59;100.00
49877;BME280;35771;48.978;9.294;2023-01-04T04:13:12;100096.59;;;1.48;100.00
49877;BME280;35771;48.978;9.294;2023-01-04T04:15:39;100108.84;;;1.52;100.00
49877;BME280;35771;48.978;9.294;2023-01-04T04:18:06;100118.63;;;1.66;100.00
49877;BME280;35771;48.978;9.294;2023-01-04T04:20:32;100134.59;;;1.81;100.00
49877;BME280;35771;48.978;9.294;2023-01-04T04:22:59;100126.34;;;1.71;100.00
49877;BME280;35771;48.978;9.294;2023-01-04T04:25:27;100094.16;;;1.71;100.00
49877;BME280;35771;48.978;9.294;2023-01-04T04:27:53;100090.66;;;1.70;100.00
49877;BME280;35771;48.978;9.294;2023-01-04T04:30:20;100089.75;;;1.70;100.00
49877;BME280;35771;48.978;9.294;2023-01-04T04:32:46;100124.44;;;1.99;100.00
49877;BME280;35771;48.978;9.294;2023-01-04T04:35:13;100111.91;;;1.99;100.00
49877;BME280;35771;48.978;9.294;2023-01-04T04:37:39;100106.31;;;2.02;100.00
49877;BME280;35771;48.978;9.294;2023-01-04T04:40:07;100092.34;;;1.97;100.00
49877;BME280;35771;48.978;9.294;2023-01-04T04:42:55;100110.94;;;2.13;100.00
49877;BME280;35771;48.978;9.294;2023-01-04T04:45:20;100104.16;;;2.07;100.00
49877;BME280;35771;48.978;9.294;2023-01-04T04:47:47;100078.53;;;1.90;100.00
49877;BME280;35771;48.978;9.294;2023-01-04T04:50:13;100075.53;;;1.95;100.00
49877;BME280;35771;48.978;9.294;2023-01-04T04:52:40;100097.19;;;2.18;100.00
49877;BME280;35771;48.978;9.294;2023-01-04T04:55:07;100087.53;;;2.15;100.00
49877;BME280;35771;48.978;9.294;2023-01-04T04:57:33;100076.47;;;2.20;100.00
49877;BME280;35771;48.978;9.294;2023-01-04T05:00:02;100082.16;;;2.28;100.00
49877;BME280;35771;48.978;9.294;2023-01-04T05:02:28;100082.06;;;2.29;100.00
49877;BME280;35771;48.978;9.294;2023-01-04T05:04:55;100078.31;;;2.32;100.00
49877;BME280;35771;48.978;9.294;2023-01-04T05:07:22;100093.06;;;2.38;100.00
49877;BME280;35771;48.978;9.294;2023-01-04T05:09:48;100061.44;;;2.30;100.00
49877;BME280;35771;48.978;9.294;2023-01-04T05:12:15;100074.28;;;2.38;100.00
49877;BME280;35771;48.978;9.294;2023-01-04T05:15:02;100077.31;;;2.46;100.00
49877;BME280;35771;48.978;9.294;2023-01-04T05:17:29;100080.59;;;2.50;100.00
49877;BME280;35771;48.978;9.294;2023-01-04T05:19:55;100080.50;;;2.51;100.00
49877;BME280;35771;48.978;9.294;2023-01-04T05:22:22;100076.75;;;2.54;100.00
49877;BME280;35771;48.978;9.294;2023-01-04T05:24:48;100071.59;;;2.51;100.00
49877;BME280;35771;48.978;9.294;2023-01-04T05:27:15;100058.50;;;2.46;100.00
49877;BME280;35771;48.978;9.294;2023-01-04T05:29:42;100072.88;;;2.58;100.00
49877;BME280;35771;48.978;9.294;2023-01-04T05:32:27;100047.56;;;2.49;100.00
49877;BME280;35771;48.978;9.294;2023-01-04T05:34:53;100057.72;;;2.57;100.00
49877;BME280;35771;48.978;9.294;2023-01-04T05:37:20;100083.53;;;2.83;100.00
49877;BME280;35771;48.978;9.294;2023-01-04T05:39:46;100069.69;;;2.77;100.00
49877;BME280;35771;48.978;9.294;2023-01-04T05:42:13;100076.03;;;2.76;100.00
49877;BME280;35771;48.978;9.294;2023-01-04T05:44:52;100084.81;;;2.91;100.00
49877;BME280;35771;48.978;9.294;2023-01-04T05:47:20;100048.31;;;2.75;100.00
49877;BME280;35771;48.978;9.294;2023-01-04T05:49:48;100084.69;;;2.92;100.00
49877;BME280;35771;48.978;9.294;2023-01-04T05:52:15;100071.38;;;2.91;100.00
49877;BME280;35771;48.978;9.294;2023-01-04T05:54:42;100061.94;;;2.85;100.00
49877;BME280;35771;48.978;9.294;2023-01-04T05:57:09;100073.94;;;2.92;100.00
49877;BME280;35771;48.978;9.294;2023-01-04T05:59:36;100047.00;;;2.81;100.00
49877;BME280;35771;48.978;9.294;2023-01-04T06:02:05;100064.44;;;2.99;100.00
49877;BME280;35771;48.978;9.294;2023-01-04T06:04:32;100062.31;;;2.92;100.00
49877;BME280;35771;48.978;9.294;2023-01-04T06:07:00;100058.22;;;2.99;100.00
49877;BME280;35771;48.978;9.294;2023-01-04T06:09:26;100066.13;;;3.13;100.00
49877;BME280;35771;48.978;9.294;2023-01-04T06:11:53;100040.50;;;2.96;100.00
49877;BME280;35771;48.978;9.294;2023-01-04T06:14:19;100069.59;;;3.27;100.00
49877;BME280;35771;48.978;9.294;2023-01-04T06:16:46;100064.53;;;3.22;100.00
49877;BME280;35771;48.978;9.294;2023-01-04T06:19:12;100052.94;;;3.22;100.00
49877;BME280;35771;48.978;9.294;2023-01-04T06:21:39;100051.75;;;3.26;100.00
49877;BME280;35771;48.978;9.294;2023-01-04T06:24:09;100052.13;;;3.32;100.00
49877;BME280;35771;48.978;9.294;2023-01-04T06:26:36;100034.19;;;3.33;100.00
49877;BME280;35771;48.978;9.294;2023-01-04T06:29:03;100035.50;;;3.27;100.00
49877;BME280;35771;48.978;9.294;2023-01-04T06:31:30;100039.09;;;3.39;100.00
49877;BME280;35771;48.978;9.294;2023-01-04T06:33:57;100032.88;;;3.50;100.00
49877;BME280;35771;48.978;9.294;2023-01-04T06:36:24;100027.50;;;3.50;100.00
49877;BME280;35771;48.978;9.294;2023-01-04T06:38:51;100027.38;;;3.51;100.00
49877;BME280;35771;48.978;9.294;2023-01-04T06:41:19;100016.50;;;3.53;100.00
49877;BME280;35771;48.978;9.294;2023-01-04T06:43:45;100030.97;;;3.63;100.00
49877;BME280;35771;48.978;9.294;2023-01-04T06:46:12;100023.88;;;3.62;100.00
49877;BME280;35771;48.978;9.294;2023-01-04T06:48:38;100029.13;;;3.64;100.00
49877;BME280;35771;48.978;9.294;2023-01-04T06:51:05;100024.72;;;3.63;100.00
49877;BME280;35771;48.978;9.294;2023-01-04T06:53:31;100019.22;;;3.64;100.00
49877;BME280;35771;48.978;9.294;2023-01-04T06:55:58;100019.34;;;3.63;100.00
49877;BME280;35771;48.978;9.294;2023-01-04T06:58:26;100017.03;;;3.69;100.00
49877;BME280;35771;48.978;9.294;2023-01-04T07:00:53;100027.91;;;3.79;100.00
49877;BME280;35771;48.978;9.294;2023-01-04T07:03:20;100026.22;;;3.78;100.00
49877;BME280;35771;48.978;9.294;2023-01-04T07:05:48;100003.72;;;3.79;100.00
49877;BME280;35771;48.978;9.294;2023-01-04T07:08:15;100030.16;;;3.85;100.00
49877;BME280;35771;48.978;9.294;2023-01-04T07:10:42;100003.13;;;3.87;100.00
49877;BME280;35771;48.978;9.294;2023-01-04T07:13:08;100023.03;;;3.96;100.00
49877;BME280;35771;48.978;9.294;2023-01-04T07:15:36;100008.16;;;3.92;100.00
49877;BME280;35771;48.978;9.294;2023-01-04T07:18:03;100014.59;;;4.00;100.00
49877;BME280;35771;48.978;9.294;2023-01-04T07:20:30;100032.50;;;4.13;100.00
49877;BME280;35771;48.978;9.294;2023-01-04T07:22:56;100041.03;;;4.18;100.00
49877;BME280;35771;48.978;9.294;2023-01-04T07:25:23;100048.75;;;4.22;100.00
49877;BME280;35771;48.978;9.294;2023-01-04T07:27:50;100038.94;;;4.21;100.00
49877;BME280;35771;48.978;9.294;2023-01-04T07:30:18;100024.41;;;4.13;100.00
49877;BME280;35771;48.978;9.294;2023-01-04T07:32:46;100020.34;;;4.18;100.00
49877;BME280;35771;48.978;9.294;2023-01-04T07:35:12;100007.88;;;4.06;100.00
49877;BME280;35771;48.978;9.294;2023-01-04T07:37:39;100014.75;;;4.10;100.00
49877;BME280;35771;48.978;9.294;2023-01-04T07:40:06;100009.38;;;4.10;100.00
49877;BME280;35771;48.978;9.294;2023-01-04T07:42:33;100010.84;;;4.14;100.00
49877;BME280;35771;48.978;9.294;2023-01-04T07:44:59;100019.88;;;4.13;100.00
49877;BME280;35771;48.978;9.294;2023-01-04T07:47:26;100029.19;;;4.20;100.00
49877;BME280;35771;48.978;9.294;2023-01-04T07:49:54;100019.78;;;4.26;100.00
49877;BME280;35771;48.978;9.294;2023-01-04T07:52:21;99996.63;;;4.12;100.00
49877;BME280;35771;48.978;9.294;2023-01-04T07:54:47;99995.91;;;4.10;100.00
49877;BME280;35771;48.978;9.294;2023-01-04T07:57:14;100009.22;;;4.23;100.00
49877;BME280;35771;48.978;9.294;2023-01-04T07:59:40;99975.59;;;4.06;100.00
49877;BME280;35771;48.978;9.294;2023-01-04T08:02:08;99981.59;;;4.10;100.00
49877;BME280;35771;48.978;9.294;2023-01-04T08:04:35;100007.88;;;4.29;100.00
49877;BME280;35771;48.978;9.294;2023-01-04T08:07:03;100011.56;;;4.28;100.00
49877;BME280;35771;48.978;9.294;2023-01-04T08:09:30;99999.22;;;4.25;100.00
49877;BME280;35771;48.978;9.294;2023-01-04T08:11:57;99978.78;;;4.11;100.00
49877;BME280;35771;48.978;9.294;2023-01-04T08:14:23;100000.16;;;4.24;100.00
49877;BME280;35771;48.978;9.294;2023-01-04T08:16:50;100006.41;;;4.24;100.00
49877;BME280;35771;48.978;9.294;2023-01-04T08:19:18;99987.09;;;4.19;100.00
49877;BME280;35771;48.978;9.294;2023-01-04T08:21:46;99964.47;;;4.11;100.00
49877;BME280;35771;48.978;9.294;2023-01-04T08:24:17;99995.88;;;4.33;100.00
49877;BME280;35771;48.978;9.294;2023-01-04T08:26:44;99983.69;;;4.17;100.00
49877;BME280;35771;48.978;9.294;2023-01-04T08:29:11;99975.56;;;4.29;100.00
49877;BME280;35771;48.978;9.294;2023-01-04T08:31:38;99990.00;;;4.39;100.00
49877;BME280;35771;48.978;9.294;2023-01-04T08:34:08;99975.94;;;4.35;100.00
49877;BME280;35771;48.978;9.294;2023-01-04T08:36:42;99987.66;;;4.46;100.00
49877;BME280;35771;48.978;9.294;2023-01-04T08:39:09;99965.66;;;4.40;100.00
49877;BME280;35771;48.978;9.294;2023-01-04T08:41:37;99977.25;;;4.52;100.00
49877;BME280;35771;48.978;9.294;2023-01-04T08:44:16;99979.44;;;4.58;100.00
49877;BME280;35771;48.978;9.294;2023-01-04T08:46:43;99955.06;;;4.60;100.00
49877;BME280;35771;48.978;9.294;2023-01-04T08:49:09;99948.59;;;4.63;100.00
49877;BME280;35771;48.978;9.294;2023-01-04T08:51:36;99965.06;;;4.81;100.00
49877;BME280;35771;48.978;9.294;2023-01-04T08:54:03;99950.56;;;4.82;100.00
49877;BME280;35771;48.978;9.294;2023-01-04T08:56:29;99945.06;;;4.83;100.00
49877;BME280;35771;48.978;9.294;2023-01-04T08:58:58;99942.16;;;4.75;100.00
49877;BME280;35771;48.978;9.294;2023-01-04T09:01:25;99957.94;;;4.79;100.00
49877;BME280;35771;48.978;9.294;2023-01-04T09:03:51;99939.22;;;4.78;100.00
49877;BME280;35771;48.978;9.294;2023-01-04T09:06:20;99940.69;;;4.71;100.00
49877;BME280;35771;48.978;9.294;2023-01-04T09:08:47;99968.06;;;4.87;100.00
49877;BME280;35771;48.978;9.294;2023-01-04T09:11:15;99943.88;;;4.76;100.00
49877;BME280;35771;48.978;9.294;2023-01-04T09:13:42;99955.81;;;4.94;100.00
49877;BME280;35771;48.978;9.294;2023-01-04T09:16:12;99938.25;;;4.79;100.00
49877;BME280;35771;48.978;9.294;2023-01-04T09:18:38;99948.09;;;4.90;100.00
49877;BME280;35771;48.978;9.294;2023-01-04T09:21:06;99943.44;;;4.92;100.00
49877;BME280;35771;48.978;9.294;2023-01-04T09:23:33;99955.00;;;5.04;100.00
49877;BME280;35771;48.978;9.294;2023-01-04T09:26:04;99974.56;;;5.17;100.00
49877;BME280;35771;48.978;9.294;2023-01-04T09:28:30;99954.63;;;5.08;100.00
49877;BME280;35771;48.978;9.294;2023-01-04T09:30:57;99972.31;;;5.22;100.00
49877;BME280;35771;48.978;9.294;2023-01-04T09:33:25;99938.53;;;5.18;100.00
49877;BME280;35771;48.978;9.294;2023-01-04T09:35:52;99941.56;;;5.25;100.00
49877;BME280;35771;48.978;9.294;2023-01-04T09:38:18;99938.97;;;5.23;100.00
49877;BME280;35771;48.978;9.294;2023-01-04T09:41:02;99941.75;;;5.33;100.00
49877;BME280;35771;48.978;9.294;2023-01-04T09:43:36;99935.50;;;5.32;100.00
49877;BME280;35771;48.978;9.294;2023-01-04T09:46:07;99945.75;;;5.39;100.00
49877;BME280;35771;48.978;9.294;2023-01-04T09:48:39;99951.22;;;5.48;100.00
49877;BME280;35771;48.978;9.294;2023-01-04T09:51:12;99942.91;;;5.40;100.00
49877;BME280;35771;48.978;9.294;2023-01-04T09:53:42;99950.25;;;5.49;100.00
49877;BME280;35771;48.978;9.294;2023-01-04T09:56:17;99934.91;;;5.50;100.00
49877;BME280;35771;48.978;9.294;2023-01-04T09:58:46;99925.09;;;5.49;100.00
49877;BME280;35771;48.978;9.294;2023-01-04T10:01:15;99911.06;;;5.55;100.00
49877;BME280;35771;48.978;9.294;2023-01-04T10:03:52;99925.06;;;5.70;100.00
49877;BME280;35771;48.978;9.294;2023-01-04T10:06:20;99900.06;;;5.68;100.00
49877;BME280;35771;48.978;9.294;2023-01-04T10:08:47;99882.16;;;5.67;100.00
49877;BME280;35771;48.978;9.294;2023-01-04T10:11:35;99895.91;;;5.95;100.00
49877;BME280;35771;48.978;9.294;2023-01-04T10:14:16;99879.53;;;5.87;100.00
49877;BME280;35771;48.978;9.294;2023-01-04T10:17:00;99878.84;;;5.94;100.00
49877;BME280;35771;48.978;9.294;2023-01-04T10:19:40;99892.00;;;6.09;100.00
49877;BME280;35771;48.978;9.294;2023-01-04T10:22:17;99886.59;;;6.09;100.00
49877;BME280;35771;48.978;9.294;2023-01-04T10:24:54;99868.97;;;6.05;100.00
49877;BME280;35771;48.978;9.294;2023-01-04T10:27:31;99900.41;;;6.25;100.00
49877;BME280;35771;48.978;9.294;2023-01-04T10:30:15;99890.47;;;6.26;100.00
49877;BME280;35771;48.978;9.294;2023-01-04T10:32:50;99866.03;;;6.17;100.00
49877;BME280;35771;48.978;9.294;2023-01-04T10:35:23;99866.59;;;6.21;100.00
49877;BME280;35771;48.978;9.294;2023-01-04T10:37:52;99872.44;;;6.36;100.00
49877;BME280;35771;48.978;9.294;2023-01-04T10:40:22;99855.53;;;6.44;100.00
49877;BME280;35771;48.978;9.294;2023-01-04T10:42:57;99872.59;;;6.54;100.00
49877;BME280;35771;48.978;9.294;2023-01-04T10:45:31;99865.50;;;6.63;100.00
49877;BME280;35771;48.978;9.294;2023-01-04T10:48:05;99846.28;;;6.66;100.00
49877;BME280;35771;48.978;9.294;2023-01-04T10:50:38;99872.88;;;6.90;100.00
49877;BME280;35771;48.978;9.294;2023-01-04T10:53:12;99851.66;;;6.95;100.00
49877;BME280;35771;48.978;9.294;2023-01-04T10:55:45;99843.97;;;7.00;100.00
49877;BME280;35771;48.978;9.294;2023-01-04T10:58:19;99848.66;;;7.08;100.00
49877;BME280;35771;48.978;9.294;2023-01-04T11:00:51;99825.72;;;7.12;100.00
49877;BME280;35771;48.978;9.294;2023-01-04T11:03:23;99836.66;;;7.30;100.00
49877;BME280;35771;48.978;9.294;2023-01-04T11:05:57;99823.50;;;7.35;100.00
49877;BME280;35771;48.978;9.294;2023-01-04T11:08:30;99827.88;;;7.46;100.00
49877;BME280;35771;48.978;9.294;2023-01-04T11:11:03;99822.75;;;7.53;100.00
49877;BME280;35771;48.978;9.294;2023-01-04T11:13:31;99799.72;;;7.39;100.00
49877;BME280;35771;48.978;9.294;2023-01-04T11:15:59;99814.03;;;7.59;100.00
49877;BME280;35771;48.978;9.294;2023-01-04T11:18:27;99789.63;;;7.41;100.00
49877;BME280;35771;48.978;9.294;2023-01-04T11:20:56;99817.34;;;7.53;100.00
49877;BME280;35771;48.978;9.294;2023-01-04T11:23:22;99799.53;;;7.50;100.00
49877;BME280;35771;48.978;9.294;2023-01-04T11:25:53;99812.63;;;7.55;100.00
49877;BME280;35771;48.978;9.294;2023-01-04T11:28:23;99816.59;;;7.60;100.00
49877;BME280;35771;48.978;9.294;2023-01-04T11:30:53;99828.41;;;7.59;100.00
49877;BME280;35771;48.978;9.294;2023-01-04T11:33:21;99811.66;;;7.46;100.00
49877;BME280;35771;48.978;9.294;2023-01-04T11:35:50;99828.00;;;7.54;100.00
49877;BME280;35771;48.978;9.294;2023-01-04T11:38:20;99809.38;;;7.51;100.00
49877;BME280;35771;48.978;9.294;2023-01-04T11:40:55;99806.09;;;7.48;100.00
49877;BME280;35771;48.978;9.294;2023-01-04T11:43:22;99822.97;;;7.59;100.00
49877;BME280;35771;48.978;9.294;2023-01-04T11:45:55;99813.59;;;7.54;100.00
49877;BME280;35771;48.978;9.294;2023-01-04T11:48:36;99814.72;;;7.61;100.00
49877;BME280;35771;48.978;9.294;2023-01-04T11:51:04;99816.28;;;7.64;100.00
49877;BME280;35771;48.978;9.294;2023-01-04T11:53:34;99802.09;;;7.52;100.00
49877;BME280;35771;48.978;9.294;2023-01-04T11:56:11;99816.00;;;7.57;100.00
49877;BME280;35771;48.978;9.294;2023-01-04T11:58:38;99810.22;;;7.52;100.00
49877;BME280;35771;48.978;9.294;2023-01-04T12:01:05;99818.53;;;7.68;100.00
49877;BME280;35771;48.978;9.294;2023-01-04T12:03:37;99811.47;;;7.57;100.00
49877;BME280;35771;48.978;9.294;2023-01-04T12:06:10;99827.41;;;7.60;100.00
49877;BME280;35771;48.978;9.294;2023-01-04T12:08:44;99809.06;;;7.54;100.00
49877;BME280;35771;48.978;9.294;2023-01-04T12:11:18;99804.34;;;7.56;100.00
49877;BME280;35771;48.978;9.294;2023-01-04T12:13:46;99820.09;;;7.71;100.00
49877;BME280;35771;48.978;9.294;2023-01-04T12:16:20;99820.81;;;7.63;100.00
49877;BME280;35771;48.978;9.294;2023-01-04T12:18:47;99802.03;;;7.61;100.00
49877;BME280;35771;48.978;9.294;2023-01-04T12:21:17;99816.81;;;7.67;100.00
49877;BME280;35771;48.978;9.294;2023-01-04T12:23:46;99784.91;;;7.43;100.00
49877;BME280;35771;48.978;9.294;2023-01-04T12:26:14;99799.38;;;7.52;100.00
49877;BME280;35771;48.978;9.294;2023-01-04T12:28:43;99814.34;;;7.46;100.00
49877;BME280;35771;48.978;9.294;2023-01-04T12:31:30;99786.03;;;7.40;100.00
49877;BME280;35771;48.978;9.294;2023-01-04T12:33:58;99789.53;;;7.23;100.00
49877;BME280;35771;48.978;9.294;2023-01-04T12:36:55;99787.38;;;7.26;100.00
49877;BME280;35771;48.978;9.294;2023-01-04T12:39:36;99799.19;;;7.25;100.00
49877;BME280;35771;48.978;9.294;2023-01-04T12:42:20;99759.44;;;7.08;100.00
49877;BME280;35771;48.978;9.294;2023-01-04T12:47:47;99748.47;;;7.09;100.00
49877;BME280;35771;48.978;9.294;2023-01-04T12:53:54;99739.59;;;7.17;100.00
49877;BME280;35771;48.978;9.294;2023-01-04T12:59:33;99751.09;;;7.29;100.00
49877;BME280;35771;48.978;9.294;2023-01-04T13:02:19;99736.41;;;7.32;100.00
49877;BME280;35771;48.978;9.294;2023-01-04T13:04:46;99736.81;;;7.37;100.00
49877;BME280;35771;48.978;9.294;2023-01-04T13:07:21;99738.44;;;7.48;100.00
49877;BME280;35771;48.978;9.294;2023-01-04T13:09:53;99741.84;;;7.50;100.00
49877;BME280;35771;48.978;9.294;2023-01-04T13:12:49;99714.94;;;7.30;100.00
49877;BME280;35771;48.978;9.294;2023-01-04T13:15:21;99722.00;;;7.41;100.00
49877;BME280;35771;48.978;9.294;2023-01-04T13:17:52;99714.56;;;7.43;100.00
49877;BME280;35771;48.978;9.294;2023-01-04T13:20:20;99724.72;;;7.59;100.00
49877;BME280;35771;48.978;9.294;2023-01-04T13:22:51;99723.16;;;7.56;100.00
49877;BME280;35771;48.978;9.294;2023-01-04T13:25:19;99733.06;;;7.66;100.00
49877;BME280;35771;48.978;9.294;2023-01-04T13:27:58;99701.06;;;7.61;100.00